createdAt,value
2018-03-25T00:01:49.169Z,3.00
2018-03-25T00:04:17.452Z,3.00
2018-03-25T00:06:45.723Z,2.90
2018-03-25T00:09:13.926Z,2.80
2018-03-25T00:11:42.133Z,2.80
2018-03-25T00:14:10.469Z,2.80
2018-03-25T00:16:38.678Z,2.80
2018-03-25T00:19:07.492Z,2.80
2018-03-25T00:21:36.837Z,2.80
2018-03-25T00:24:05.737Z,2.80
2018-03-25T00:26:33.954Z,2.90
2018-03-25T00:29:03.396Z,2.90
2018-03-25T00:31:31.605Z,2.80
2018-03-25T00:34:00.261Z,2.80
2018-03-25T00:36:28.701Z,2.70
2018-03-25T00:38:56.906Z,2.70
2018-03-25T00:41:25.561Z,2.70
2018-03-25T00:43:54.126Z,2.60
2018-03-25T00:46:22.823Z,2.60
2018-03-25T00:48:51.800Z,2.50
2018-03-25T00:51:26.615Z,2.50
2018-03-25T00:53:55.226Z,2.50
2018-03-25T00:56:24.214Z,2.40
2018-03-25T00:58:52.421Z,2.40
2018-03-25T01:01:21.275Z,2.30
2018-03-25T01:03:49.749Z,2.20
2018-03-25T01:06:17.955Z,2.20
2018-03-25T01:08:46.165Z,2.20
2018-03-25T01:11:14.391Z,2.20
2018-03-25T01:13:43.088Z,2.20
2018-03-25T01:16:12.062Z,2.10
2018-03-25T01:18:43.732Z,2.10
2018-03-25T01:21:13.052Z,2.00
2018-03-25T01:23:41.239Z,2.00
2018-03-25T01:26:09.453Z,2.10
2018-03-25T01:28:38.049Z,2.00
2018-03-25T01:31:06.263Z,2.00
2018-03-25T01:33:34.727Z,2.00
2018-03-25T01:36:04.398Z,2.00
2018-03-25T01:38:32.706Z,2.00
2018-03-25T01:41:00.894Z,2.00
2018-03-25T01:43:29.877Z,1.80
2018-03-25T01:45:58.653Z,1.80
2018-03-25T01:48:26.858Z,1.80
2018-03-25T01:50:55.853Z,1.70
2018-03-25T01:53:26.121Z,1.70
2018-03-25T01:55:54.321Z,1.70
2018-03-25T01:58:22.535Z,1.70
2018-03-25T02:00:51.200Z,1.70
2018-03-25T02:03:19.393Z,1.60
2018-03-25T02:05:47.602Z,1.70
2018-03-25T02:08:15.837Z,1.70
2018-03-25T02:10:45.121Z,1.70
2018-03-25T02:13:13.322Z,1.70
2018-03-25T02:15:42.101Z,1.60
2018-03-25T02:18:11.413Z,1.60
2018-03-25T02:20:40.003Z,1.60
2018-03-25T02:23:11.424Z,1.60
2018-03-25T02:25:39.632Z,1.60
2018-03-25T02:28:08.290Z,1.60
2018-03-25T02:30:37.365Z,1.60
2018-03-25T02:33:05.965Z,1.60
2018-03-25T02:35:34.170Z,1.60
2018-03-25T02:38:02.373Z,1.60
2018-03-25T02:40:30.622Z,1.50
2018-03-25T02:42:58.826Z,1.40
2018-03-25T02:45:27.299Z,1.30
2018-03-25T02:47:55.498Z,1.20
2018-03-25T02:50:23.715Z,1.20
2018-03-25T02:52:52.909Z,1.30
2018-03-25T02:55:21.779Z,1.30
2018-03-25T02:57:49.990Z,1.30
2018-03-25T03:00:18.279Z,1.40
2018-03-25T03:02:46.489Z,1.40
2018-03-25T03:05:14.716Z,1.30
2018-03-25T03:07:42.960Z,1.30
2018-03-25T03:10:11.779Z,1.20
2018-03-25T03:12:39.988Z,1.10
2018-03-25T03:15:10.990Z,1.10
2018-03-25T03:17:40.301Z,1.10
2018-03-25T03:20:09.189Z,1.10
2018-03-25T03:22:37.402Z,1.10
2018-03-25T03:25:05.633Z,1.10
2018-03-25T03:27:35.112Z,1.10
2018-03-25T03:30:03.687Z,1.10
2018-03-25T03:32:31.894Z,1.00
2018-03-25T03:35:00.113Z,1.00
2018-03-25T03:37:28.341Z,1.00
2018-03-25T03:39:57.320Z,0.90
2018-03-25T03:42:25.540Z,0.90
2018-03-25T03:44:54.705Z,1.00
2018-03-25T03:47:22.917Z,0.90
2018-03-25T03:49:51.901Z,0.80
2018-03-25T03:52:21.377Z,0.80
2018-03-25T03:54:49.969Z,0.80
2018-03-25T03:57:19.040Z,0.80
2018-03-25T03:59:48.079Z,0.80
2018-03-25T04:02:16.294Z,0.80
2018-03-25T04:04:44.517Z,0.80
2018-03-25T04:07:12.759Z,0.90
2018-03-25T04:09:41.465Z,0.80
2018-03-25T04:12:09.678Z,0.80
2018-03-25T04:14:38.412Z,0.70
2018-03-25T04:17:07.010Z,0.70
2018-03-25T04:19:35.224Z,0.60
2018-03-25T04:22:03.801Z,0.70
2018-03-25T04:24:32.021Z,0.70
2018-03-25T04:27:01.038Z,0.60
2018-03-25T04:29:29.637Z,0.70
2018-03-25T04:31:58.620Z,0.70
2018-03-25T04:34:26.829Z,0.70
2018-03-25T04:36:55.093Z,0.60
2018-03-25T04:39:24.078Z,0.50
2018-03-25T04:41:52.664Z,0.50
2018-03-25T04:44:21.649Z,0.50
2018-03-25T04:46:49.933Z,0.50
2018-03-25T04:49:18.153Z,0.50
2018-03-25T04:51:46.461Z,0.40
2018-03-25T04:54:15.194Z,0.40
2018-03-25T04:56:43.408Z,0.30
2018-03-25T04:59:12.038Z,0.30
2018-03-25T05:01:41.539Z,0.20
2018-03-25T05:04:09.743Z,0.20
2018-03-25T05:06:37.965Z,0.30
2018-03-25T05:09:06.594Z,0.30
2018-03-25T05:11:36.104Z,0.40
2018-03-25T05:14:05.165Z,0.40
2018-03-25T05:16:34.078Z,0.40
2018-03-25T05:19:03.180Z,0.40
2018-03-25T05:21:32.487Z,0.30
2018-03-25T05:24:01.470Z,0.30
2018-03-25T05:26:30.049Z,0.30
2018-03-25T05:28:59.085Z,0.30
2018-03-25T05:31:27.405Z,0.30
2018-03-25T05:33:55.702Z,0.40
2018-03-25T05:36:23.877Z,0.40
2018-03-25T05:38:52.118Z,0.40
2018-03-25T05:41:20.325Z,0.40
2018-03-25T05:43:48.540Z,0.40
2018-03-25T05:46:18.734Z,0.50
2018-03-25T05:48:47.722Z,0.60
2018-03-25T05:51:21.843Z,0.50
2018-03-25T05:53:51.346Z,0.70
2018-03-25T05:56:19.556Z,0.70
